createdAt,value
2023-04-11T00:00:36.398Z,11.37
2023-04-11T00:03:03.387Z,11.38
2023-04-11T00:05:30.917Z,11.37
2023-04-11T00:07:57.761Z,11.40
2023-04-11T00:10:24.843Z,11.41
2023-04-11T00:12:53.322Z,11.42
2023-04-11T00:15:20.020Z,11.43
2023-04-11T00:17:46.629Z,11.44
2023-04-11T00:20:13.225Z,11.44
2023-04-11T00:22:39.827Z,11.45
2023-04-11T00:25:07.127Z,11.45
2023-04-11T00:27:33.738Z,11.44
2023-04-11T00:30:00.558Z,11.45
2023-04-11T00:32:27.437Z,11.46
2023-04-11T00:34:54.222Z,11.46
2023-04-11T00:37:20.897Z,11.44
2023-04-11T00:39:50.675Z,11.44
2023-04-11T00:42:17.323Z,11.48
2023-04-11T00:44:45.376Z,11.48
2023-04-11T00:47:12.538Z,11.49
2023-04-11T00:49:40.945Z,11.51
2023-04-11T00:52:08.315Z,11.52
2023-04-11T00:54:35.314Z,11.52
2023-04-11T00:57:04.200Z,11.56
2023-04-11T00:59:32.371Z,11.57
2023-04-11T01:04:47.091Z,11.59
2023-04-11T01:07:14.409Z,11.64
2023-04-11T01:09:41.965Z,11.66
2023-04-11T01:12:09.475Z,11.69
2023-04-11T01:14:36.085Z,11.71
2023-04-11T01:17:02.854Z,11.74
2023-04-11T01:19:30.974Z,11.76
2023-04-11T01:21:58.720Z,11.77
2023-04-11T01:24:25.572Z,11.81
2023-04-11T01:26:52.276Z,11.82
2023-04-11T01:29:20.243Z,11.84
2023-04-11T01:31:46.850Z,11.87
2023-04-11T01:34:15.764Z,11.89
2023-04-11T01:36:42.776Z,11.93
2023-04-11T01:39:10.370Z,11.95
2023-04-11T01:41:37.755Z,11.96
2023-04-11T01:44:04.742Z,11.98
2023-04-11T01:46:31.978Z,12.02
2023-04-11T01:48:59.948Z,12.02
2023-04-11T01:51:26.617Z,12.03
2023-04-11T01:53:53.294Z,12.05
2023-04-11T01:56:20.008Z,12.06
2023-04-11T01:58:46.865Z,12.07
2023-04-11T02:01:18.251Z,12.07
2023-04-11T02:03:45.486Z,12.08
2023-04-11T02:06:12.379Z,12.06
2023-04-11T02:08:39.073Z,12.05
2023-04-11T02:11:05.729Z,11.87
2023-04-11T02:13:32.372Z,11.95
2023-04-11T02:16:08.180Z,12.00
2023-04-11T02:18:36.253Z,12.06
2023-04-11T02:21:02.904Z,12.06
2023-04-11T02:23:29.554Z,12.16
2023-04-11T02:25:56.198Z,12.26
2023-04-11T02:28:22.854Z,12.34
2023-04-11T02:30:53.150Z,12.42
2023-04-11T02:33:19.971Z,12.48
2023-04-11T02:35:47.149Z,12.56
2023-04-11T02:38:14.314Z,12.61
2023-04-11T02:40:41.270Z,12.67
2023-04-11T02:43:07.907Z,12.72
2023-04-11T02:45:34.631Z,12.77
2023-04-11T02:48:02.396Z,12.81
2023-04-11T02:50:30.524Z,12.75
2023-04-11T02:52:57.258Z,12.86
2023-04-11T02:55:27.294Z,12.89
2023-04-11T02:57:53.914Z,12.91
2023-04-11T03:00:21.705Z,12.91
2023-04-11T03:02:53.729Z,12.93
2023-04-11T03:05:22.633Z,12.96
2023-04-11T03:07:52.518Z,12.97
2023-04-11T03:10:19.820Z,12.98
2023-04-11T03:12:46.477Z,12.98
2023-04-11T03:15:13.473Z,12.99
2023-04-11T03:17:40.113Z,13.00
2023-04-11T03:20:09.508Z,12.98
2023-04-11T03:22:36.099Z,12.97
2023-04-11T03:25:03.199Z,12.98
2023-04-11T03:27:29.936Z,12.96
2023-04-11T03:30:00.259Z,12.94
2023-04-11T03:32:36.563Z,12.93
2023-04-11T03:35:03.324Z,12.91
2023-04-11T03:37:30.297Z,12.87
2023-04-11T03:39:56.906Z,12.89
2023-04-11T03:42:23.849Z,12.87
2023-04-11T03:44:55.905Z,12.88
2023-04-11T03:47:24.919Z,12.89
2023-04-11T03:49:51.780Z,12.89
2023-04-11T03:52:18.898Z,12.88
2023-04-11T03:54:48.021Z,12.88
2023-04-11T03:57:15.678Z,12.89
2023-04-11T03:59:42.344Z,12.89
2023-04-11T04:02:12.236Z,12.87
2023-04-11T04:04:46.501Z,12.86
2023-04-11T04:07:22.000Z,12.84
2023-04-11T04:09:51.109Z,12.81
2023-04-11T04:12:18.353Z,12.79
2023-04-11T04:15:04.776Z,12.73
2023-04-11T04:17:31.392Z,12.69
2023-04-11T04:19:59.145Z,12.66
2023-04-11T04:22:25.743Z,12.68
2023-04-11T04:24:55.614Z,12.69
2023-04-11T04:27:25.908Z,12.69
2023-04-11T04:30:01.126Z,12.72
2023-04-11T04:32:43.709Z,12.76
2023-04-11T04:35:12.715Z,12.79
2023-04-11T04:37:39.848Z,12.81
2023-04-11T04:40:32.583Z,12.83
2023-04-11T04:43:03.732Z,12.84
2023-04-11T04:45:38.918Z,12.85
2023-04-11T04:48:05.952Z,12.88
2023-04-11T04:50:32.775Z,12.89
2023-04-11T04:52:59.357Z,12.91
2023-04-11T04:55:26.024Z,12.88
2023-04-11T04:57:53.254Z,12.91
2023-04-11T05:00:21.795Z,12.85
2023-04-11T05:02:50.683Z,12.86
2023-04-11T05:05:17.572Z,12.86
2023-04-11T05:07:44.386Z,12.78
2023-04-11T05:10:11.157Z,12.70
2023-04-11T05:12:39.429Z,12.63
2023-04-11T05:15:10.508Z,12.57
2023-04-11T05:17:38.526Z,12.52
2023-04-11T05:20:06.752Z,12.50
2023-04-11T05:22:33.636Z,12.44
2023-04-11T05:25:00.732Z,12.43
2023-04-11T05:27:27.615Z,12.42
2023-04-11T05:29:54.627Z,12.34
2023-04-11T05:32:21.287Z,12.39
2023-04-11T05:34:54.309Z,12.41
2023-04-11T05:37:41.297Z,12.49
2023-04-11T05:40:08.603Z,12.51
2023-04-11T05:42:35.188Z,12.49
2023-04-11T05:45:01.856Z,12.47
2023-04-11T05:47:28.471Z,12.52
2023-04-11T05:49:55.075Z,12.54
2023-04-11T05:52:21.671Z,12.60
2023-04-11T05:54:48.359Z,12.61
2023-04-11T05:57:15.024Z,12.63
2023-04-11T05:59:41.653Z,12.60
2023-04-11T06:02:08.677Z,12.67
2023-04-11T06:04:35.555Z,12.74
2023-04-11T06:07:02.398Z,12.75
2023-04-11T06:09:29.502Z,12.80
2023-04-11T06:11:56.144Z,12.85
2023-04-11T06:14:22.815Z,12.88
2023-04-11T06:16:49.411Z,12.95
2023-04-11T06:19:17.250Z,12.83
2023-04-11T06:21:43.990Z,12.84
2023-04-11T06:24:11.125Z,12.88
2023-04-11T06:26:37.774Z,12.90
2023-04-11T06:29:05.870Z,12.97
2023-04-11T06:31:32.913Z,12.82
2023-04-11T06:34:01.149Z,12.99
2023-04-11T06:36:27.746Z,12.93
2023-04-11T06:38:54.309Z,13.05
2023-04-11T06:41:21.042Z,13.12
2023-04-11T06:43:47.587Z,13.13
2023-04-11T06:46:14.215Z,13.12
2023-04-11T06:48:40.940Z,13.15
2023-04-11T06:51:07.562Z,13.17
2023-04-11T06:53:34.164Z,13.16
2023-04-11T06:56:00.731Z,13.18
2023-04-11T06:58:27.355Z,13.20
2023-04-11T07:00:53.919Z,13.20
2023-04-11T07:03:20.551Z,13.15
2023-04-11T07:05:47.195Z,13.08
2023-04-11T07:08:13.951Z,12.99
2023-04-11T07:10:40.569Z,12.88
2023-04-11T07:13:07.126Z,12.76
2023-04-11T07:15:33.746Z,12.67
2023-04-11T07:18:00.386Z,12.56
2023-04-11T07:20:27.189Z,12.43
2023-04-11T07:22:54.031Z,12.35
2023-04-11T07:25:20.704Z,12.28
2023-04-11T07:27:47.423Z,12.21
2023-04-11T07:30:14.523Z,12.15
2023-04-11T07:32:41.127Z,12.05
2023-04-11T07:35:08.075Z,12.04
2023-04-11T07:37:34.634Z,11.98
2023-04-11T07:40:01.349Z,11.93
2023-04-11T07:42:28.040Z,11.89
2023-04-11T07:44:54.717Z,11.86
2023-04-11T07:47:21.314Z,11.82
2023-04-11T07:49:47.887Z,11.79
2023-04-11T07:52:14.632Z,11.73
2023-04-11T07:54:41.320Z,11.69
2023-04-11T07:57:07.897Z,11.65
2023-04-11T07:59:34.460Z,11.62
2023-04-11T08:02:01.825Z,11.55
2023-04-11T08:04:33.024Z,11.52
2023-04-11T08:07:00.016Z,11.51
2023-04-11T08:09:26.731Z,11.46
2023-04-11T08:11:53.826Z,11.44
2023-04-11T08:14:20.568Z,11.38
2023-04-11T08:16:47.232Z,11.35
2023-04-11T08:19:13.907Z,11.29
2023-04-11T08:21:40.658Z,11.28
2023-04-11T08:24:08.108Z,11.25
2023-04-11T08:26:34.976Z,11.24
2023-04-11T08:29:01.656Z,11.20
2023-04-11T08:31:28.509Z,11.20
2023-04-11T08:33:56.925Z,11.20
2023-04-11T08:36:25.079Z,11.17
2023-04-11T08:38:51.678Z,11.18
2023-04-11T08:41:18.420Z,11.19
2023-04-11T08:43:45.155Z,11.12
2023-04-11T08:46:11.769Z,11.04
2023-04-11T08:48:38.756Z,10.94
2023-04-11T08:51:05.797Z,10.95
2023-04-11T08:53:36.215Z,10.98
2023-04-11T08:56:03.741Z,10.89
2023-04-11T08:58:30.432Z,10.93
2023-04-11T09:00:57.055Z,10.96
2023-04-11T09:03:23.823Z,10.95
2023-04-11T09:05:50.671Z,11.00
2023-04-11T09:08:17.688Z,11.08
2023-04-11T09:10:45.766Z,11.06
2023-04-11T09:13:25.761Z,10.99
2023-04-11T09:16:09.555Z,11.14
2023-04-11T09:18:38.405Z,11.16
2023-04-11T09:21:13.689Z,11.18
2023-04-11T09:23:40.628Z,11.20
2023-04-11T09:26:08.905Z,11.23
2023-04-11T09:28:45.653Z,11.25
2023-04-11T09:31:12.540Z,11.29
2023-04-11T09:33:39.334Z,11.30
2023-04-11T09:36:19.292Z,11.24
2023-04-11T09:38:46.485Z,11.22
2023-04-11T09:41:13.668Z,11.27
2023-04-11T09:43:51.283Z,11.28
2023-04-11T09:46:18.898Z,11.28
2023-04-11T09:49:01.672Z,11.27
2023-04-11T09:51:36.630Z,11.28
2023-04-11T09:54:16.185Z,11.28
2023-04-11T09:56:42.997Z,11.32
2023-04-11T09:59:09.856Z,11.31
2023-04-11T10:01:38.976Z,11.37
2023-04-11T10:04:05.671Z,11.38
2023-04-11T10:07:12.698Z,11.36
2023-04-11T10:09:41.786Z,11.35
2023-04-11T10:12:08.460Z,11.40
2023-04-11T10:14:42.222Z,11.35
2023-04-11T10:17:12.007Z,11.31
2023-04-11T10:19:38.628Z,11.24
2023-04-11T10:22:05.529Z,11.16
2023-04-11T10:24:32.139Z,11.10
2023-04-11T10:27:03.549Z,11.07
2023-04-11T10:29:30.065Z,11.06
2023-04-11T10:32:22.456Z,10.99
2023-04-11T10:34:52.272Z,10.99
2023-04-11T10:37:30.944Z,10.95
2023-04-11T10:39:57.535Z,10.86
2023-04-11T10:42:32.464Z,10.80
2023-04-11T10:45:23.637Z,10.78
2023-04-11T10:47:56.325Z,10.76
2023-04-11T10:50:25.770Z,10.76
2023-04-11T10:52:53.443Z,10.76
2023-04-11T10:55:20.724Z,10.77
2023-04-11T10:58:12.732Z,10.76
2023-04-11T11:01:21.241Z,10.80
2023-04-11T11:03:58.686Z,10.88
2023-04-11T11:06:25.780Z,10.94
2023-04-11T11:08:52.574Z,11.03
2023-04-11T11:11:19.299Z,11.09
2023-04-11T11:13:49.967Z,11.16
2023-04-11T11:16:21.975Z,11.26
2023-04-11T11:18:51.260Z,11.42
2023-04-11T11:21:26.727Z,11.50
2023-04-11T11:24:01.632Z,11.54
2023-04-11T11:26:42.155Z,11.66
2023-04-11T11:29:10.018Z,11.72
2023-04-11T11:31:46.446Z,11.76
2023-04-11T11:34:23.679Z,11.83
2023-04-11T11:36:51.371Z,11.93
2023-04-11T11:39:20.420Z,12.02
2023-04-11T11:41:48.788Z,12.11
2023-04-11T11:44:22.582Z,12.11
2023-04-11T11:47:09.056Z,12.26
2023-04-11T11:49:49.220Z,12.40
2023-04-11T11:52:35.104Z,12.56
2023-04-11T11:55:03.193Z,12.58
2023-04-11T11:57:29.813Z,12.64
2023-04-11T11:59:57.274Z,12.65
2023-04-11T12:02:25.144Z,12.73
2023-04-11T12:05:03.040Z,12.66
2023-04-11T12:07:37.023Z,12.57
2023-04-11T12:10:07.984Z,12.62
2023-04-11T12:12:53.737Z,12.58
2023-04-11T12:15:23.420Z,12.58
2023-04-11T12:17:52.124Z,12.61
2023-04-11T12:20:26.555Z,12.47
2023-04-11T12:25:40.713Z,12.43
2023-04-11T12:28:08.895Z,12.58
2023-04-11T12:30:35.557Z,12.49
2023-04-11T12:33:02.259Z,12.69
2023-04-11T12:35:29.711Z,12.79
2023-04-11T12:37:56.762Z,12.89
2023-04-11T12:40:24.335Z,12.99
2023-04-11T12:42:57.005Z,13.11
2023-04-11T12:45:24.906Z,13.18
2023-04-11T12:47:51.709Z,13.35
2023-04-11T12:50:18.411Z,13.45
2023-04-11T12:52:45.220Z,13.49
2023-04-11T12:55:13.425Z,13.56
2023-04-11T12:57:40.483Z,13.60
2023-04-11T13:00:07.700Z,13.58
2023-04-11T13:02:42.123Z,13.62
2023-04-11T13:05:11.421Z,13.64
2023-04-11T13:07:38.238Z,13.71
2023-04-11T13:10:08.958Z,13.71
2023-04-11T13:12:35.643Z,13.74
2023-04-11T13:15:02.398Z,13.63
2023-04-11T13:17:29.002Z,13.66
2023-04-11T13:19:55.694Z,13.65
2023-04-11T13:22:22.333Z,13.64
2023-04-11T13:24:48.994Z,13.66
2023-04-11T13:27:15.560Z,13.64
2023-04-11T13:29:42.202Z,13.68
2023-04-11T13:32:08.821Z,13.69
2023-04-11T13:34:35.523Z,13.74
2023-04-11T13:37:02.095Z,13.73
2023-04-11T13:39:28.739Z,13.62
2023-04-11T13:41:55.365Z,13.55
2023-04-11T13:44:22.063Z,13.50
2023-04-11T13:46:48.946Z,13.47
2023-04-11T13:49:15.610Z,13.40
2023-04-11T13:51:42.318Z,13.30
2023-04-11T13:54:08.992Z,13.22
2023-04-11T13:56:36.449Z,13.23
2023-04-11T13:59:03.706Z,13.13
2023-04-11T14:01:30.444Z,13.23
2023-04-11T14:03:57.425Z,13.21
2023-04-11T14:06:24.409Z,13.22
2023-04-11T14:08:51.107Z,13.29
2023-04-11T14:11:17.865Z,13.38
2023-04-11T14:13:44.480Z,13.42
2023-04-11T14:16:11.184Z,13.41
2023-04-11T14:18:37.767Z,13.46
2023-04-11T14:21:07.674Z,13.56
2023-04-11T14:23:34.605Z,13.64
2023-04-11T14:26:01.218Z,13.66
2023-04-11T14:28:27.937Z,13.74
2023-04-11T14:30:56.062Z,13.78
2023-04-11T14:33:23.160Z,13.83
2023-04-11T14:35:51.014Z,13.91
2023-04-11T14:38:17.820Z,13.91
2023-04-11T14:40:44.672Z,13.87
2023-04-11T14:43:11.391Z,13.75
2023-04-11T14:45:38.145Z,13.75
2023-04-11T14:48:05.418Z,13.75
2023-04-11T14:50:32.174Z,13.77
2023-04-11T14:52:58.966Z,13.81
2023-04-11T14:55:25.577Z,13.78
2023-04-11T14:57:54.821Z,13.79
2023-04-11T15:00:22.079Z,13.89
2023-04-11T15:02:53.070Z,14.13
2023-04-11T15:05:20.426Z,14.34
2023-04-11T15:07:48.132Z,14.48
2023-04-11T15:10:16.542Z,14.51
2023-04-11T15:12:43.299Z,14.50
2023-04-11T15:15:10.384Z,14.54
2023-04-11T15:17:45.298Z,14.50
2023-04-11T15:20:12.695Z,14.42
2023-04-11T15:22:41.474Z,14.28
2023-04-11T15:25:11.913Z,14.23
2023-04-11T15:27:38.947Z,14.04
2023-04-11T15:30:06.612Z,14.12
2023-04-11T15:32:33.554Z,14.22
2023-04-11T15:35:00.235Z,14.30
2023-04-11T15:37:26.880Z,14.48
2023-04-11T15:39:53.620Z,14.69
2023-04-11T15:42:20.218Z,14.80
2023-04-11T15:44:46.864Z,14.96
2023-04-11T15:47:13.729Z,15.13
2023-04-11T15:49:40.326Z,15.10
2023-04-11T15:52:07.105Z,15.10
2023-04-11T15:54:33.722Z,14.88
2023-04-11T15:57:00.557Z,14.68
2023-04-11T15:59:27.261Z,14.46
2023-04-11T16:01:53.932Z,14.28
2023-04-11T16:04:20.700Z,14.17
2023-04-11T16:06:47.307Z,14.17
2023-04-11T16:09:13.957Z,14.27
2023-04-11T16:11:40.839Z,14.34
2023-04-11T16:14:07.498Z,14.58
2023-04-11T16:16:34.202Z,14.71
2023-04-11T16:19:00.787Z,14.64
2023-04-11T16:21:27.501Z,14.60
2023-04-11T16:23:54.435Z,14.61
2023-04-11T16:26:21.316Z,14.78
2023-04-11T16:28:48.641Z,14.95
2023-04-11T16:31:15.372Z,14.95
2023-04-11T16:33:41.916Z,15.10
2023-04-11T16:36:08.878Z,15.06
2023-04-11T16:38:35.497Z,14.98
2023-04-11T16:41:02.068Z,14.92
2023-04-11T16:43:28.777Z,14.82
2023-04-11T16:45:55.437Z,14.81
2023-04-11T16:48:22.100Z,14.76
2023-04-11T16:50:48.901Z,14.83
2023-04-11T16:53:15.541Z,14.88
2023-04-11T16:55:42.100Z,14.80
2023-04-11T16:58:08.906Z,14.89
2023-04-11T17:00:35.570Z,14.96
2023-04-11T17:03:02.399Z,15.02
2023-04-11T17:05:29.319Z,14.98
2023-04-11T17:07:57.155Z,14.95
2023-04-11T17:10:23.840Z,14.86
2023-04-11T17:12:50.718Z,14.76
2023-04-11T17:15:17.343Z,14.63
2023-04-11T17:17:44.008Z,14.46
2023-04-11T17:20:11.396Z,14.25
2023-04-11T17:22:37.965Z,14.04
2023-04-11T17:25:04.986Z,13.85
2023-04-11T17:27:32.703Z,13.70
2023-04-11T17:29:59.285Z,13.54
2023-04-11T17:32:25.846Z,13.44
2023-04-11T17:34:52.542Z,13.30
2023-04-11T17:37:19.115Z,13.19
2023-04-11T17:39:45.813Z,12.99
2023-04-11T17:42:12.370Z,12.83
2023-04-11T17:44:39.258Z,12.73
2023-04-11T17:47:07.034Z,12.57
2023-04-11T17:49:33.629Z,12.43
2023-04-11T17:52:00.391Z,12.29
2023-04-11T17:54:27.164Z,12.18
2023-04-11T17:56:53.868Z,12.06
2023-04-11T17:59:20.471Z,11.91
2023-04-11T18:01:47.280Z,11.81
2023-04-11T18:04:14.284Z,11.69
2023-04-11T18:06:42.434Z,11.58
2023-04-11T18:09:09.021Z,11.40
2023-04-11T18:11:35.674Z,11.38
2023-04-11T18:14:02.328Z,11.30
2023-04-11T18:16:29.266Z,11.21
2023-04-11T18:18:56.056Z,11.12
2023-04-11T18:21:22.745Z,11.05
2023-04-11T18:23:49.489Z,10.96
2023-04-11T18:26:16.189Z,10.89
2023-04-11T18:28:42.847Z,10.82
2023-04-11T18:31:10.000Z,10.76
2023-04-11T18:33:40.222Z,10.68
2023-04-11T18:36:09.011Z,10.62
2023-04-11T18:38:35.658Z,10.56
2023-04-11T18:41:05.700Z,10.51
2023-04-11T18:43:33.561Z,10.45
2023-04-11T18:46:01.608Z,10.41
2023-04-11T18:48:28.251Z,10.34
2023-04-11T18:51:01.118Z,10.27
2023-04-11T18:53:27.782Z,10.24
2023-04-11T18:55:54.373Z,10.19
2023-04-11T18:58:23.635Z,10.14
2023-04-11T19:00:52.123Z,10.10
2023-04-11T19:03:19.238Z,10.05
2023-04-11T19:05:46.716Z,10.01
2023-04-11T19:08:13.781Z,9.96
2023-04-11T19:10:40.421Z,9.92
2023-04-11T19:13:07.023Z,9.89
2023-04-11T19:15:33.773Z,9.84
2023-04-11T19:18:00.753Z,9.78
2023-04-11T19:20:27.512Z,9.73
2023-04-11T19:22:54.259Z,9.69
2023-04-11T19:25:20.861Z,9.66
2023-04-11T19:27:47.614Z,9.60
2023-04-11T19:30:14.372Z,9.57
2023-04-11T19:32:41.350Z,9.54
2023-04-11T19:35:09.740Z,9.50
2023-04-11T19:37:36.651Z,9.38
2023-04-11T19:40:07.036Z,9.39
2023-04-11T19:42:34.521Z,9.37
2023-04-11T19:45:01.125Z,9.31
2023-04-11T19:47:27.860Z,9.28
2023-04-11T19:49:54.604Z,9.23
2023-04-11T19:52:21.211Z,9.18
2023-04-11T19:54:47.895Z,9.14
2023-04-11T19:57:14.475Z,9.10
2023-04-11T19:59:41.058Z,9.06
2023-04-11T20:02:07.972Z,9.01
2023-04-11T20:04:34.603Z,8.96
2023-04-11T20:07:01.207Z,8.92
2023-04-11T20:09:27.796Z,8.87
2023-04-11T20:11:54.887Z,8.83
2023-04-11T20:14:24.417Z,8.79
2023-04-11T20:16:51.160Z,8.74
2023-04-11T20:19:17.841Z,8.68
2023-04-11T20:21:44.409Z,8.65
2023-04-11T20:24:10.950Z,8.59
2023-04-11T20:26:37.984Z,8.56
2023-04-11T20:29:04.548Z,8.50
2023-04-11T20:31:31.264Z,8.47
2023-04-11T20:33:58.128Z,8.43
2023-04-11T20:36:25.414Z,8.39
2023-04-11T20:38:52.025Z,8.35
2023-04-11T20:41:18.575Z,8.31
2023-04-11T20:43:45.460Z,8.28
2023-04-11T20:46:12.071Z,8.25
2023-04-11T20:48:42.430Z,8.21
2023-04-11T20:51:09.456Z,8.17
2023-04-11T20:53:36.278Z,8.14
2023-04-11T20:56:04.109Z,8.11
2023-04-11T20:58:30.773Z,8.06
2023-04-11T21:00:57.414Z,8.03
2023-04-11T21:03:24.095Z,8.01
2023-04-11T21:05:50.878Z,7.96
2023-04-11T21:08:17.459Z,7.95
2023-04-11T21:10:44.195Z,7.92
2023-04-11T21:13:11.938Z,7.89
2023-04-11T21:15:38.663Z,7.86
2023-04-11T21:18:07.406Z,7.86
2023-04-11T21:20:34.353Z,7.85
2023-04-11T21:23:01.100Z,7.84
2023-04-11T21:25:27.639Z,7.85
2023-04-11T21:27:54.358Z,7.85
2023-04-11T21:30:20.999Z,7.86
2023-04-11T21:32:47.671Z,7.86
2023-04-11T21:35:14.406Z,7.88
2023-04-11T21:37:40.999Z,7.88
2023-04-11T21:40:08.368Z,7.89
2023-04-11T21:42:35.116Z,7.90
2023-04-11T21:45:01.708Z,7.90
2023-04-11T21:47:28.341Z,7.89
2023-04-11T21:49:54.929Z,7.87
2023-04-11T21:52:21.548Z,7.86
2023-04-11T21:54:48.281Z,7.82
2023-04-11T21:57:14.932Z,7.80
2023-04-11T21:59:41.481Z,7.76
2023-04-11T22:02:08.320Z,7.74
2023-04-11T22:04:41.410Z,7.70
2023-04-11T22:07:14.318Z,7.65
2023-04-11T22:09:41.003Z,7.62
2023-04-11T22:12:07.651Z,7.58
2023-04-11T22:14:34.279Z,7.55
2023-04-11T22:17:00.864Z,7.52
2023-04-11T22:19:27.530Z,7.50
2023-04-11T22:21:54.088Z,7.47
2023-04-11T22:24:20.707Z,7.43
2023-04-11T22:26:47.244Z,7.41
2023-04-11T22:29:13.886Z,7.40
2023-04-11T22:31:40.641Z,7.37
2023-04-11T22:34:07.212Z,7.35
2023-04-11T22:36:33.896Z,7.33
2023-04-11T22:39:00.562Z,7.32
2023-04-11T22:41:27.207Z,7.29
2023-04-11T22:43:53.937Z,7.28
2023-04-11T22:46:20.503Z,7.25
2023-04-11T22:48:47.215Z,7.24
2023-04-11T22:51:13.860Z,7.24
2023-04-11T22:53:40.505Z,7.23
2023-04-11T22:56:08.539Z,7.23
2023-04-11T22:58:35.388Z,7.21
2023-04-11T23:01:02.094Z,7.21
2023-04-11T23:03:28.697Z,7.22
2023-04-11T23:05:55.291Z,7.20
2023-04-11T23:08:21.947Z,7.20
2023-04-11T23:10:48.599Z,7.21
2023-04-11T23:13:15.280Z,7.19
2023-04-11T23:15:42.837Z,7.21
2023-04-11T23:18:09.531Z,7.19
2023-04-11T23:20:36.194Z,7.21
2023-04-11T23:23:02.947Z,7.21
2023-04-11T23:25:29.652Z,7.22
2023-04-11T23:27:56.222Z,7.22
2023-04-11T23:30:22.972Z,7.23
2023-04-11T23:32:49.649Z,7.23
2023-04-11T23:35:16.383Z,7.24
2023-04-11T23:37:43.267Z,7.25
2023-04-11T23:40:10.469Z,7.25
2023-04-11T23:42:38.362Z,7.25
2023-04-11T23:45:06.503Z,7.28
2023-04-11T23:47:33.561Z,7.21
2023-04-11T23:50:00.218Z,7.29
2023-04-11T23:52:26.899Z,7.29
2023-04-11T23:54:53.649Z,7.32
2023-04-11T23:57:20.202Z,7.33
2023-04-11T23:59:47.115Z,7.35
